General Abelardo L. Rodríguez International Airport
MMTJ : now visible

Airfield :











YOU CAN JOIN US ON...

 
LOGIN :

Register | Disclaimer

   EN    FR    IT 

 









Legend :    VFR   Marginal VFR   IFR   Intensive IFR   Very Intensive IFR
Visi :
Ceiling :
>= 8 km
>= 3000ft
5 to 8 km
1000 to 3000 ft
1500m to 5 km
500 to 1000 ft
800 to 1500m
200 to 500 ft
< 800m
< 200 ft
Symbols :   Thunderstorms  Fog  Heavy snow  Heavy precipitations  Wind > 20 kt






- Airport Elevation : 489 ft
- IATA code : TIJ


MMTJ - General Abelardo L. Rodríguez International

CURRENT METAR :
  • 231146Z 00000KT 7SM BKN028TCU 12/11 A3023 RMK SLP243 52007 942 8/200

EXPIRED METARs :
  • 231042Z 13003KT 11SM SCT030 BKN050 11/10 A3022 RMK 8/500
  • 230940Z 00000KT 7SM BKN030TCU 11/10 A3022 RMK 8/200

TAF COR TAF MMTJ
Valid from the 23 at 12:00 until the 24 at 18:00 UTC


231153Z 2312/2418 00000KT P6SM BKN020 TX17/2320Z TN11/2312Z
TEMPO 2312/2314 2SM BR OVC008
FM231800 32012KT P6SM SCT030 BKN250
FM240600 30005KT 6SM HZ SCT015
FM240900 00000KT 4SM HZ BKN015
TEMPO 2411/2415 3SM BR HZ BKN008
FM241700 34010KT P6SM SCT030 BKN250



MET'MAP, your aeronautical weather chart ! - Copyright ORBIFLY December 2007 - Disclaimer

ORBIFLY MET'MAP TEAM :

Programming & Development : Alexandra Zaïnal
Concept & original design : Baudouin d'Aumeries
Assistance for programming : Marc-Olivier Méhu
Technical & hardware support : Manuel Goepfert

Contact : metmap@orbifly.com




SOURCES & CREDITS :

   NOAA       Earth
Advisory